createdAt,value
2017-08-04T00:02:25.508Z,99.90
2017-08-04T00:04:52.984Z,99.90
2017-08-04T00:07:20.471Z,99.90
2017-08-04T00:09:47.946Z,99.90
2017-08-04T00:12:15.415Z,99.90
2017-08-04T00:14:42.904Z,99.90
2017-08-04T00:17:10.384Z,99.90
2017-08-04T00:19:37.889Z,99.90
2017-08-04T00:22:05.361Z,99.90
2017-08-04T00:24:32.840Z,99.90
2017-08-04T00:27:00.332Z,99.90
2017-08-04T00:29:27.805Z,99.90
2017-08-04T00:31:55.290Z,99.90
2017-08-04T00:34:22.773Z,99.90
2017-08-04T00:36:50.276Z,99.70
2017-08-04T00:39:17.753Z,99.10
2017-08-04T00:41:45.224Z,98.90
2017-08-04T00:44:12.715Z,99.10
2017-08-04T00:46:40.953Z,98.70
2017-08-04T00:49:08.420Z,98.70
2017-08-04T00:51:35.917Z,98.60
2017-08-04T00:54:03.384Z,99.40
2017-08-04T00:56:30.869Z,99.00
2017-08-04T00:58:58.354Z,99.90
2017-08-04T01:01:25.830Z,99.40
2017-08-04T01:03:54.153Z,98.70
2017-08-04T01:06:21.628Z,98.70
2017-08-04T01:08:49.138Z,98.50
2017-08-04T01:11:17.377Z,98.70
2017-08-04T01:13:44.872Z,98.70
2017-08-04T01:16:13.124Z,99.70
2017-08-04T01:18:40.596Z,99.70
2017-08-04T01:21:08.858Z,99.90
2017-08-04T01:23:36.351Z,99.90
2017-08-04T01:26:03.931Z,99.90
2017-08-04T01:28:31.409Z,99.90
2017-08-04T01:30:58.892Z,99.90
2017-08-04T01:33:26.385Z,99.90
2017-08-04T01:35:53.895Z,99.90
2017-08-04T01:38:21.401Z,99.90
2017-08-04T01:40:48.869Z,99.90
2017-08-04T01:43:16.356Z,99.90
2017-08-04T01:45:43.869Z,99.90
2017-08-04T01:48:11.345Z,99.90
2017-08-04T01:50:38.817Z,99.90
2017-08-04T01:53:06.316Z,99.90
2017-08-04T01:55:33.802Z,99.90
2017-08-04T01:58:01.296Z,99.90
2017-08-04T02:00:28.793Z,99.90
2017-08-04T02:02:56.262Z,99.90
2017-08-04T02:05:24.539Z,99.90
2017-08-04T02:07:52.142Z,99.90
2017-08-04T02:10:19.640Z,99.90
2017-08-04T02:12:47.162Z,99.90
2017-08-04T02:15:14.627Z,99.90
2017-08-04T02:17:42.096Z,99.90
2017-08-04T02:20:09.599Z,99.90
2017-08-04T02:22:38.864Z,99.90
2017-08-04T02:25:06.353Z,99.90
2017-08-04T02:27:34.669Z,99.90
2017-08-04T02:30:03.053Z,99.90
2017-08-04T02:32:30.713Z,99.90
2017-08-04T02:34:58.200Z,99.90
2017-08-04T02:37:25.685Z,99.90
2017-08-04T02:39:53.929Z,99.90
2017-08-04T02:42:21.420Z,99.90
2017-08-04T02:44:49.684Z,99.90
2017-08-04T02:47:17.196Z,99.90
2017-08-04T02:49:44.694Z,99.90
2017-08-04T02:52:12.215Z,99.90
2017-08-04T02:54:39.693Z,99.90
2017-08-04T02:57:07.236Z,99.90
2017-08-04T02:59:34.732Z,99.90
2017-08-04T03:02:02.247Z,99.90
2017-08-04T03:04:29.729Z,99.90
2017-08-04T03:06:57.265Z,99.90
2017-08-04T03:09:24.732Z,99.90
2017-08-04T03:11:52.285Z,99.90
2017-08-04T03:14:19.767Z,99.90
2017-08-04T03:16:47.300Z,99.90
2017-08-04T03:19:14.793Z,99.90
2017-08-04T03:21:42.268Z,99.90
2017-08-04T03:24:10.545Z,99.90
2017-08-04T03:26:38.792Z,99.90
2017-08-04T03:29:06.321Z,99.90
2017-08-04T03:31:33.808Z,99.90
2017-08-04T03:34:01.296Z,99.90
2017-08-04T03:36:28.783Z,99.90
2017-08-04T03:38:56.262Z,99.90
2017-08-04T03:41:23.775Z,99.90
2017-08-04T03:43:51.244Z,99.90
2017-08-04T03:46:19.484Z,99.90
2017-08-04T03:48:46.977Z,99.90
2017-08-04T03:51:15.217Z,99.90
2017-08-04T03:53:42.732Z,99.90
2017-08-04T03:56:10.216Z,99.90
2017-08-04T03:58:37.732Z,99.90
2017-08-04T04:01:06.000Z,99.90
2017-08-04T04:03:34.353Z,99.90
2017-08-04T04:06:01.839Z,99.90
2017-08-04T04:08:30.114Z,99.90
2017-08-04T04:10:58.360Z,99.90
2017-08-04T04:13:25.852Z,99.90
2017-08-04T04:15:54.093Z,99.90
2017-08-04T04:18:21.569Z,99.90
2017-08-04T04:20:49.064Z,99.90
2017-08-04T04:23:16.551Z,99.90
2017-08-04T04:25:44.051Z,99.90
2017-08-04T04:28:12.327Z,99.90
2017-08-04T04:30:40.558Z,99.90
2017-08-04T04:33:08.031Z,99.90
2017-08-04T04:35:35.524Z,99.90
2017-08-04T04:38:03.763Z,99.90
2017-08-04T04:40:31.269Z,99.90
2017-08-04T04:42:58.736Z,99.90
2017-08-04T04:45:26.213Z,99.90
2017-08-04T04:47:53.720Z,99.90
2017-08-04T04:50:21.966Z,99.90
2017-08-04T04:52:49.464Z,99.90
2017-08-04T04:55:17.785Z,99.90
2017-08-04T04:57:45.286Z,99.90
2017-08-04T05:00:12.764Z,99.90
2017-08-04T05:02:41.003Z,99.90
2017-08-04T05:05:08.491Z,99.90
2017-08-04T05:07:36.736Z,99.90
2017-08-04T05:10:04.225Z,99.90
2017-08-04T05:12:32.548Z,99.90
2017-08-04T05:15:00.026Z,99.90
2017-08-04T05:17:27.563Z,99.90
2017-08-04T05:19:55.037Z,99.90
2017-08-04T05:22:22.511Z,99.90
2017-08-04T05:24:50.001Z,99.90
2017-08-04T05:27:18.232Z,99.90
2017-08-04T05:29:45.725Z,99.90
2017-08-04T05:32:13.213Z,99.70
2017-08-04T05:34:41.016Z,99.50
2017-08-04T05:37:08.681Z,99.80
2017-08-04T05:39:36.188Z,99.10
2017-08-04T05:42:03.656Z,99.20
2017-08-04T05:44:31.896Z,99.00
2017-08-04T05:46:59.376Z,98.70
2017-08-04T05:49:27.617Z,97.60
2017-08-04T05:51:55.101Z,97.60
2017-08-04T05:54:22.576Z,98.10
2017-08-04T05:56:50.052Z,98.00
2017-08-04T05:59:18.321Z,98.70
2017-08-04T06:01:46.567Z,98.00
2017-08-04T06:04:14.056Z,98.00
2017-08-04T06:06:42.293Z,96.90
2017-08-04T06:09:10.030Z,96.80
2017-08-04T06:11:37.556Z,97.50
2017-08-04T06:14:05.785Z,96.40
2017-08-04T06:16:33.268Z,96.30
2017-08-04T06:19:00.744Z,96.70
2017-08-04T06:21:28.986Z,96.70
2017-08-04T06:23:56.464Z,96.40
2017-08-04T06:26:23.936Z,96.20
2017-08-04T06:28:52.206Z,95.20
2017-08-04T06:31:19.687Z,95.20
2017-08-04T06:33:47.925Z,94.10
2017-08-04T06:36:15.413Z,94.10
2017-08-04T06:38:43.647Z,92.80
2017-08-04T06:41:11.144Z,92.80
2017-08-04T06:43:39.400Z,90.80
2017-08-04T06:46:06.873Z,90.80
2017-08-04T06:48:47.099Z,90.40
2017-08-04T06:51:26.569Z,90.40
2017-08-04T06:54:06.746Z,89.10
2017-08-04T06:56:35.662Z,89.10
2017-08-04T06:59:03.149Z,85.80
2017-08-04T07:01:30.625Z,82.10
2017-08-04T07:03:58.135Z,81.70
2017-08-04T07:06:25.614Z,81.20
2017-08-04T07:08:53.083Z,79.00
2017-08-04T07:11:20.569Z,73.80
2017-08-04T07:13:48.819Z,69.00
2017-08-04T07:16:16.310Z,68.80
2017-08-04T07:18:44.549Z,58.70
2017-08-04T07:21:12.028Z,58.60
2017-08-04T07:23:39.512Z,59.50
2017-08-04T07:26:06.998Z,59.10
2017-08-04T07:28:34.460Z,61.30
2017-08-04T07:31:01.956Z,61.20
2017-08-04T07:33:29.440Z,60.20
2017-08-04T07:35:56.910Z,58.70
2017-08-04T07:38:24.493Z,55.80
2017-08-04T07:40:51.980Z,56.30
2017-08-04T07:43:19.457Z,57.60
2017-08-04T07:45:46.917Z,58.60
2017-08-04T07:48:15.172Z,52.80
2017-08-04T07:50:42.644Z,52.70
2017-08-04T07:53:10.132Z,52.90
2017-08-04T07:55:37.617Z,50.90
2017-08-04T07:58:05.084Z,51.10
2017-08-04T08:00:32.614Z,50.30
2017-08-04T08:03:00.091Z,48.30
2017-08-04T08:05:27.576Z,48.90
2017-08-04T08:07:55.050Z,49.10
2017-08-04T08:10:22.508Z,49.20
2017-08-04T08:12:50.011Z,46.90
2017-08-04T08:15:17.480Z,46.20
2017-08-04T08:17:44.970Z,44.70
2017-08-04T08:20:12.450Z,42.30
2017-08-04T08:22:40.692Z,43.90
2017-08-04T08:25:08.185Z,43.90
2017-08-04T08:27:36.417Z,42.90
2017-08-04T08:30:03.913Z,42.90
2017-08-04T08:32:31.380Z,39.20
2017-08-04T08:34:59.641Z,40.50
2017-08-04T08:37:27.117Z,40.40
2017-08-04T08:39:54.624Z,40.40
2017-08-04T08:42:22.112Z,41.40
2017-08-04T08:44:49.580Z,40.30
2017-08-04T08:47:17.083Z,40.50
2017-08-04T08:49:44.562Z,41.70
2017-08-04T08:52:12.028Z,44.30
2017-08-04T08:54:39.516Z,43.20
2017-08-04T08:57:07.760Z,41.00
2017-08-04T08:59:35.249Z,40.70
2017-08-04T09:02:03.513Z,43.90
2017-08-04T09:04:30.981Z,44.30
2017-08-04T09:06:58.485Z,43.10
2017-08-04T09:09:25.975Z,43.70
2017-08-04T09:11:53.453Z,46.20
2017-08-04T09:14:20.942Z,47.90
2017-08-04T09:16:48.445Z,48.40
2017-08-04T09:19:15.921Z,46.20
2017-08-04T09:21:43.424Z,47.10
2017-08-04T09:24:10.896Z,46.90
2017-08-04T09:26:38.466Z,47.30
2017-08-04T09:29:05.924Z,47.00
2017-08-04T09:31:33.440Z,47.20
2017-08-04T09:34:01.673Z,47.00
2017-08-04T09:36:29.141Z,47.00
2017-08-04T09:38:56.633Z,48.20
2017-08-04T09:41:24.865Z,47.20
2017-08-04T09:43:52.336Z,47.10
2017-08-04T09:46:19.835Z,48.60
2017-08-04T09:48:47.312Z,49.20
2017-08-04T09:51:14.805Z,48.20
2017-08-04T09:53:42.295Z,49.60
2017-08-04T09:56:10.531Z,48.40
2017-08-04T09:58:38.580Z,48.40
2017-08-04T10:01:06.063Z,48.60
2017-08-04T10:03:33.733Z,48.60
2017-08-04T10:06:01.220Z,48.30
2017-08-04T10:08:29.464Z,49.10
2017-08-04T10:10:56.937Z,49.10
2017-08-04T10:13:24.432Z,50.70
2017-08-04T10:15:52.007Z,48.00
2017-08-04T10:18:19.504Z,48.70
2017-08-04T10:20:46.968Z,48.40
2017-08-04T10:23:14.456Z,49.00
2017-08-04T10:25:41.934Z,46.80
2017-08-04T10:28:09.408Z,44.50
2017-08-04T10:30:36.897Z,43.80
2017-08-04T10:33:04.362Z,43.90
2017-08-04T10:35:31.832Z,43.90
2017-08-04T10:38:00.086Z,45.90
2017-08-04T10:40:27.562Z,45.90
2017-08-04T10:42:55.835Z,47.60
2017-08-04T10:45:23.308Z,47.00
2017-08-04T10:47:51.574Z,48.50
2017-08-04T10:50:19.806Z,48.70
2017-08-04T10:52:47.268Z,48.30
2017-08-04T10:55:14.765Z,46.80
2017-08-04T10:57:43.086Z,48.60
2017-08-04T11:00:10.576Z,48.60
2017-08-04T11:02:38.059Z,47.20
2017-08-04T11:05:06.350Z,47.90
2017-08-04T11:07:34.655Z,48.30
2017-08-04T11:10:02.129Z,48.20
2017-08-04T11:12:29.624Z,50.00
2017-08-04T11:14:57.100Z,46.60
2017-08-04T11:17:25.328Z,46.50
2017-08-04T11:19:52.871Z,46.50
2017-08-04T11:22:20.345Z,46.20
2017-08-04T11:24:47.830Z,45.80
2017-08-04T11:27:15.288Z,46.80
2017-08-04T11:29:42.780Z,46.60
2017-08-04T11:32:10.264Z,47.20
2017-08-04T11:34:37.757Z,48.10
2017-08-04T11:37:05.232Z,46.80
2017-08-04T11:39:33.512Z,48.70
2017-08-04T11:42:01.786Z,48.70
2017-08-04T11:44:30.024Z,50.00
2017-08-04T11:46:57.510Z,49.60
2017-08-04T11:49:25.005Z,49.00
2017-08-04T11:51:52.476Z,50.00
2017-08-04T11:54:19.957Z,49.50
2017-08-04T11:56:47.445Z,49.30
2017-08-04T11:59:14.935Z,50.80
2017-08-04T12:01:42.396Z,50.00
2017-08-04T12:04:09.866Z,50.60
2017-08-04T12:06:37.363Z,50.30
2017-08-04T12:09:04.836Z,49.70
2017-08-04T12:11:32.303Z,50.30
2017-08-04T12:14:00.576Z,49.30
2017-08-04T12:16:28.065Z,49.30
2017-08-04T12:18:55.642Z,48.40
2017-08-04T12:21:23.200Z,47.30
2017-08-04T12:23:50.673Z,48.50
2017-08-04T12:26:18.198Z,48.70
2017-08-04T12:28:45.676Z,48.00
2017-08-04T12:31:13.293Z,47.40
2017-08-04T12:33:41.533Z,47.80
2017-08-04T12:36:09.017Z,47.20
2017-08-04T12:38:36.516Z,47.00
2017-08-04T12:41:03.986Z,47.50
2017-08-04T12:43:31.464Z,48.10
2017-08-04T12:45:58.941Z,47.30
2017-08-04T12:48:26.421Z,49.10
2017-08-04T12:50:54.698Z,48.80
2017-08-04T12:53:22.934Z,48.00
2017-08-04T12:55:50.399Z,47.50
2017-08-04T12:58:17.892Z,49.10
2017-08-04T13:00:46.126Z,49.70
2017-08-04T13:03:13.657Z,49.50
2017-08-04T13:05:41.128Z,49.50
2017-08-04T13:08:08.615Z,49.90
2017-08-04T13:10:36.128Z,50.90
2017-08-04T13:13:03.600Z,50.40
2017-08-04T13:15:31.096Z,50.40
2017-08-04T13:17:58.593Z,50.30
2017-08-04T13:20:26.840Z,50.10
2017-08-04T13:22:54.516Z,50.10
2017-08-04T13:25:21.985Z,50.30
2017-08-04T13:27:49.474Z,50.00
2017-08-04T13:30:16.956Z,50.70
2017-08-04T13:32:45.192Z,51.60
2017-08-04T13:35:12.680Z,51.60
2017-08-04T13:37:40.929Z,51.40
2017-08-04T13:40:08.395Z,51.20
2017-08-04T13:42:35.916Z,51.50
2017-08-04T13:45:03.391Z,53.50
2017-08-04T13:47:30.894Z,52.60
2017-08-04T13:49:59.124Z,52.20
2017-08-04T13:52:26.620Z,52.10
2017-08-04T13:54:54.885Z,52.00
2017-08-04T13:57:22.353Z,52.00
2017-08-04T13:59:50.588Z,52.70
2017-08-04T14:02:18.133Z,52.30
2017-08-04T14:04:45.605Z,51.80
2017-08-04T14:07:13.068Z,52.50
2017-08-04T14:09:40.564Z,51.50
2017-08-04T14:12:08.876Z,51.80
2017-08-04T14:14:36.365Z,51.80
2017-08-04T14:17:03.859Z,51.90
2017-08-04T14:19:31.335Z,51.70
2017-08-04T14:21:59.604Z,51.20
2017-08-04T14:24:27.891Z,49.60
2017-08-04T14:26:55.365Z,49.60
2017-08-04T14:29:22.859Z,50.10
2017-08-04T14:31:50.389Z,51.00
2017-08-04T14:34:17.857Z,49.20
2017-08-04T14:36:45.349Z,48.30
2017-08-04T14:39:12.827Z,47.60
2017-08-04T14:41:41.100Z,48.20
2017-08-04T14:44:09.337Z,49.50
2017-08-04T14:46:36.824Z,49.40
2017-08-04T14:49:04.313Z,48.90
2017-08-04T14:51:31.808Z,48.30
2017-08-04T14:53:59.290Z,48.50
2017-08-04T14:56:26.760Z,49.50
2017-08-04T14:58:54.245Z,50.40
2017-08-04T15:01:21.724Z,51.70
2017-08-04T15:03:49.205Z,52.10
2017-08-04T15:06:16.677Z,52.90
2017-08-04T15:08:44.161Z,53.00
2017-08-04T15:11:12.542Z,52.90
2017-08-04T15:13:40.813Z,53.40
2017-08-04T15:16:09.052Z,53.80
2017-08-04T15:18:36.545Z,53.80
2017-08-04T15:21:04.789Z,54.10
2017-08-04T15:23:32.252Z,54.10
2017-08-04T15:25:59.744Z,54.70
2017-08-04T15:28:27.980Z,54.20
2017-08-04T15:30:55.473Z,54.80
2017-08-04T15:33:23.710Z,54.10
2017-08-04T15:35:51.172Z,53.70
2017-08-04T15:38:18.672Z,53.30
2017-08-04T15:40:46.944Z,52.80
2017-08-04T15:43:15.184Z,52.40
2017-08-04T15:45:42.675Z,52.40
2017-08-04T15:48:10.909Z,53.10
2017-08-04T15:50:38.428Z,53.10
2017-08-04T15:53:05.897Z,53.00
2017-08-04T15:55:33.397Z,53.30
2017-08-04T15:58:00.869Z,53.50
2017-08-04T16:00:28.375Z,53.70
2017-08-04T16:02:55.849Z,53.70
2017-08-04T16:05:23.313Z,52.40
2017-08-04T16:07:50.858Z,52.70
2017-08-04T16:10:18.329Z,51.70
2017-08-04T16:12:45.810Z,52.70
2017-08-04T16:15:13.344Z,51.20
2017-08-04T16:17:40.812Z,51.80
2017-08-04T16:20:08.351Z,51.70
2017-08-04T16:22:35.821Z,51.40
2017-08-04T16:25:03.316Z,49.60
2017-08-04T16:27:30.812Z,50.30
2017-08-04T16:29:58.293Z,49.50
2017-08-04T16:32:25.805Z,48.80
2017-08-04T16:34:54.058Z,49.60
2017-08-04T16:37:21.570Z,49.50
2017-08-04T16:39:49.036Z,49.50
2017-08-04T16:42:16.516Z,49.50
2017-08-04T16:44:44.020Z,49.60
2017-08-04T16:47:12.256Z,49.90
2017-08-04T16:49:39.736Z,49.90
2017-08-04T16:52:07.212Z,49.10
2017-08-04T16:54:35.472Z,49.00
2017-08-04T16:57:02.936Z,48.80
2017-08-04T16:59:30.448Z,48.30
2017-08-04T17:01:57.928Z,48.50
2017-08-04T17:04:25.409Z,48.00
2017-08-04T17:06:53.668Z,46.80
2017-08-04T17:09:21.143Z,46.50
2017-08-04T17:11:49.396Z,47.00
2017-08-04T17:14:16.876Z,47.10
2017-08-04T17:16:45.155Z,46.70
2017-08-04T17:19:13.422Z,46.90
2017-08-04T17:21:40.895Z,47.20
2017-08-04T17:24:09.165Z,47.40
2017-08-04T17:26:36.625Z,47.40
2017-08-04T17:29:04.889Z,48.30
2017-08-04T17:31:32.365Z,48.30
2017-08-04T17:34:00.598Z,48.30
2017-08-04T17:36:28.092Z,48.30
2017-08-04T17:38:56.349Z,48.80
2017-08-04T17:41:23.832Z,48.20
2017-08-04T17:43:52.074Z,48.20
2017-08-04T17:46:19.585Z,48.20
2017-08-04T17:48:47.066Z,48.20
2017-08-04T17:51:15.406Z,48.60
2017-08-04T17:53:43.684Z,49.80
2017-08-04T17:56:11.920Z,49.70
2017-08-04T17:58:39.442Z,49.70
2017-08-04T18:01:06.913Z,49.60
2017-08-04T18:03:34.412Z,50.70
2017-08-04T18:06:01.881Z,51.00
2017-08-04T18:08:30.215Z,51.60
2017-08-04T18:10:57.681Z,51.50
2017-08-04T18:13:25.160Z,51.40
2017-08-04T18:15:52.653Z,52.60
2017-08-04T18:18:20.144Z,52.50
2017-08-04T18:20:47.633Z,52.30
2017-08-04T18:23:15.114Z,52.60
2017-08-04T18:25:44.349Z,53.30
2017-08-04T18:28:11.841Z,53.30
2017-08-04T18:30:39.312Z,54.00
2017-08-04T18:33:06.789Z,54.20
2017-08-04T18:35:35.065Z,54.10
2017-08-04T18:38:03.378Z,54.50
2017-08-04T18:40:30.877Z,54.50
2017-08-04T18:42:58.395Z,55.60
2017-08-04T18:45:25.885Z,56.20
2017-08-04T18:47:53.412Z,56.10
2017-08-04T18:50:20.908Z,57.00
2017-08-04T18:52:48.405Z,57.30
2017-08-04T18:55:16.095Z,58.10
2017-08-04T18:57:43.585Z,57.60
2017-08-04T19:00:11.073Z,58.80
2017-08-04T19:02:39.322Z,59.10
2017-08-04T19:05:06.797Z,59.00
2017-08-04T19:07:34.292Z,58.90
2017-08-04T19:10:01.775Z,57.50
2017-08-04T19:12:29.255Z,57.40
2017-08-04T19:14:56.759Z,59.20
2017-08-04T19:17:24.289Z,58.30
2017-08-04T19:19:52.567Z,59.90
2017-08-04T19:22:20.024Z,59.40
2017-08-04T19:24:48.257Z,61.20
2017-08-04T19:27:15.749Z,61.20
2017-08-04T19:29:43.267Z,61.60
2017-08-04T19:32:10.782Z,59.20
2017-08-04T19:34:39.031Z,60.90
2017-08-04T19:37:06.518Z,61.60
2017-08-04T19:39:34.757Z,63.80
2017-08-04T19:42:02.254Z,63.70
2017-08-04T19:44:30.488Z,63.20
2017-08-04T19:46:57.984Z,63.10
2017-08-04T19:49:26.348Z,67.80
2017-08-04T19:51:54.617Z,66.30
2017-08-04T19:54:22.141Z,66.20
2017-08-04T19:56:49.641Z,68.20
2017-08-04T19:59:17.109Z,68.30
2017-08-04T20:01:45.371Z,70.30
2017-08-04T20:04:12.861Z,70.20
2017-08-04T20:06:40.343Z,70.10
2017-08-04T20:09:07.830Z,69.40
2017-08-04T20:11:35.300Z,71.50
2017-08-04T20:14:02.804Z,72.50
2017-08-04T20:16:31.080Z,75.10
2017-08-04T20:18:58.566Z,75.00
2017-08-04T20:21:26.061Z,75.20
2017-08-04T20:23:53.575Z,75.20
2017-08-04T20:26:21.065Z,76.00
2017-08-04T20:28:48.593Z,75.60
2017-08-04T20:31:16.069Z,76.80
2017-08-04T20:33:43.592Z,76.20
2017-08-04T20:36:11.072Z,76.60
2017-08-04T20:38:38.612Z,77.20
2017-08-04T20:41:06.108Z,78.50
2017-08-04T20:43:33.582Z,75.60
2017-08-04T20:46:01.050Z,75.90
2017-08-04T20:48:28.691Z,77.90
2017-08-04T20:50:56.614Z,78.00
2017-08-04T20:53:24.111Z,76.60
2017-08-04T20:55:51.602Z,77.40
2017-08-04T20:58:19.077Z,81.30
2017-08-04T21:00:47.341Z,84.60
2017-08-04T21:03:15.580Z,84.50
2017-08-04T21:05:43.080Z,84.50
2017-08-04T21:08:11.343Z,85.40
2017-08-04T21:10:39.620Z,86.40
2017-08-04T21:13:07.097Z,86.20
2017-08-04T21:15:35.369Z,86.40
2017-08-04T21:18:03.662Z,89.40
2017-08-04T21:20:31.153Z,89.40
2017-08-04T21:22:58.633Z,90.70
2017-08-04T21:25:26.133Z,91.40
2017-08-04T21:27:53.717Z,92.10
2017-08-04T21:30:21.205Z,92.00
2017-08-04T21:32:48.736Z,92.30
2017-08-04T21:35:16.224Z,92.00
2017-08-04T21:37:43.718Z,92.30
2017-08-04T21:40:11.956Z,94.00
2017-08-04T21:42:39.451Z,93.70
2017-08-04T21:45:07.705Z,93.30
2017-08-04T21:47:35.225Z,93.30
2017-08-04T21:50:02.708Z,94.50
2017-08-04T21:52:30.193Z,94.10
2017-08-04T21:54:57.701Z,92.60
2017-08-04T21:57:25.184Z,94.70
2017-08-04T21:59:52.687Z,94.40
2017-08-04T22:02:20.157Z,94.10
2017-08-04T22:04:47.642Z,93.60
2017-08-04T22:07:15.153Z,93.20
2017-08-04T22:09:42.685Z,94.60
2017-08-04T22:12:10.173Z,95.00
2017-08-04T22:14:38.436Z,95.10
2017-08-04T22:17:05.906Z,95.10
2017-08-04T22:19:33.419Z,95.40
2017-08-04T22:22:00.883Z,95.40
2017-08-04T22:24:28.384Z,96.00
2017-08-04T22:26:56.621Z,96.60
2017-08-04T22:29:24.137Z,96.60
2017-08-04T22:31:51.644Z,95.50
2017-08-04T22:34:19.148Z,96.10
2017-08-04T22:36:46.652Z,96.10
2017-08-04T22:39:14.144Z,95.80
2017-08-04T22:41:42.408Z,97.50
2017-08-04T22:44:09.889Z,97.40
2017-08-04T22:46:38.135Z,96.70
2017-08-04T22:49:05.641Z,96.70
2017-08-04T22:51:33.149Z,96.30
2017-08-04T22:54:00.638Z,96.10
2017-08-04T22:56:28.886Z,96.20
2017-08-04T22:58:56.382Z,96.50
2017-08-04T23:01:23.962Z,97.80
2017-08-04T23:03:51.459Z,97.70
2017-08-04T23:06:18.942Z,97.80
2017-08-04T23:08:47.217Z,98.70
2017-08-04T23:11:15.458Z,98.40
2017-08-04T23:13:42.930Z,98.40
2017-08-04T23:16:10.432Z,97.70
2017-08-04T23:18:37.904Z,97.50
2017-08-04T23:21:05.408Z,98.30
2017-08-04T23:23:32.880Z,97.80
2017-08-04T23:26:01.113Z,97.80
2017-08-04T23:28:28.599Z,97.70
2017-08-04T23:30:56.085Z,98.30
2017-08-04T23:33:24.347Z,99.30
2017-08-04T23:35:52.585Z,99.40
2017-08-04T23:38:20.064Z,99.40
2017-08-04T23:40:47.564Z,99.90
2017-08-04T23:43:15.038Z,99.90
2017-08-04T23:45:42.508Z,99.90
2017-08-04T23:48:10.021Z,99.90
2017-08-04T23:50:38.284Z,99.90
2017-08-04T23:53:05.791Z,99.90
2017-08-04T23:55:33.258Z,99.90
2017-08-04T23:58:00.777Z,99.90
